createdAt,value
2023-02-12T00:01:33.975Z,846.7
2023-02-12T00:03:17.725Z,844.7
2023-02-12T00:05:01.367Z,840.9
2023-02-12T00:06:45.083Z,837.4
2023-02-12T00:08:28.841Z,835.2
2023-02-12T00:10:12.486Z,831.6
2023-02-12T00:11:56.186Z,831.7
2023-02-12T00:13:39.895Z,825.5
2023-02-12T00:15:23.616Z,824
2023-02-12T00:17:07.305Z,823.1
2023-02-12T00:18:51.002Z,822.3
2023-02-12T00:20:34.691Z,821.9
2023-02-12T00:22:18.410Z,818.5
2023-02-12T00:24:02.108Z,814.7
2023-02-12T00:25:45.817Z,815.6
2023-02-12T00:27:29.515Z,813.3
2023-02-12T00:29:13.210Z,806.7
2023-02-12T00:30:56.916Z,802.2
2023-02-12T00:32:40.617Z,799.4
2023-02-12T00:34:24.312Z,798.1
2023-02-12T00:36:08.019Z,797.7
2023-02-12T00:37:51.721Z,797.2
2023-02-12T00:39:35.421Z,794.8
2023-02-12T00:41:19.139Z,788.4
2023-02-12T00:43:02.833Z,782.1
2023-02-12T00:44:46.529Z,777.3
2023-02-12T00:46:30.222Z,771
2023-02-12T00:48:13.939Z,769.7
2023-02-12T00:49:57.624Z,769.6
2023-02-12T00:51:41.336Z,769.1
2023-02-12T00:53:25.040Z,766.4
2023-02-12T00:55:08.757Z,763.2
2023-02-12T00:56:52.422Z,764
2023-02-12T00:58:36.146Z,761
2023-02-12T01:00:19.829Z,758.9
2023-02-12T01:02:03.547Z,757.9
2023-02-12T01:03:47.242Z,757.3
2023-02-12T01:05:30.949Z,755.6
2023-02-12T01:07:14.650Z,750.9
2023-02-12T01:08:58.374Z,749.2
2023-02-12T01:10:42.050Z,746.5
2023-02-12T01:12:25.797Z,744.1
2023-02-12T01:14:09.463Z,739.7
2023-02-12T01:15:53.172Z,739.3
2023-02-12T01:17:36.891Z,738.1
2023-02-12T01:19:20.565Z,735
2023-02-12T01:21:04.258Z,732.8
2023-02-12T01:22:47.966Z,730.9
2023-02-12T01:24:31.693Z,725.2
2023-02-12T01:26:15.350Z,721.7
2023-02-12T01:27:59.062Z,718.5
2023-02-12T01:29:42.795Z,719.6
2023-02-12T01:31:26.472Z,720.8
2023-02-12T01:33:10.169Z,724.1
2023-02-12T01:34:53.880Z,722.8
2023-02-12T01:36:37.576Z,717
2023-02-12T01:38:21.277Z,711.6
2023-02-12T01:40:04.980Z,710.6
2023-02-12T01:41:48.692Z,710.9
2023-02-12T01:43:32.386Z,710.6
2023-02-12T01:46:59.792Z,710.1
2023-02-12T01:48:43.506Z,710.2
2023-02-12T01:50:27.189Z,707.5
2023-02-12T01:52:10.907Z,707.3
2023-02-12T01:53:54.597Z,705.3
2023-02-12T01:55:38.315Z,703.4
2023-02-12T01:57:22.010Z,699.8
2023-02-12T01:59:05.704Z,697.3
2023-02-12T02:00:49.424Z,695.2
2023-02-12T02:02:33.127Z,692.9
2023-02-12T02:04:16.802Z,694.5
2023-02-12T02:06:00.513Z,691.5
2023-02-12T02:07:44.256Z,689.2
2023-02-12T02:09:27.921Z,690.2
2023-02-12T02:11:11.609Z,688
2023-02-12T02:12:55.312Z,690.4
2023-02-12T02:14:39.025Z,692.5
2023-02-12T02:16:22.721Z,693.7
2023-02-12T02:18:06.418Z,691.1
2023-02-12T02:19:50.124Z,687.2
2023-02-12T02:21:33.845Z,684.3
2023-02-12T02:23:17.529Z,684.5
2023-02-12T02:25:01.236Z,686.1
2023-02-12T02:26:44.988Z,682.6
2023-02-12T02:28:28.624Z,677.9
2023-02-12T02:30:12.384Z,674.2
2023-02-12T02:31:56.033Z,670.6
2023-02-12T02:33:39.726Z,668
2023-02-12T02:35:23.456Z,663.6
2023-02-12T02:37:07.136Z,662.6
2023-02-12T02:38:50.848Z,662.2
2023-02-12T02:40:34.541Z,659.9
2023-02-12T02:42:18.874Z,656
2023-02-12T02:44:01.960Z,652.7
2023-02-12T02:45:45.643Z,650.8
2023-02-12T02:47:29.359Z,650.4
2023-02-12T02:49:13.044Z,651.1
2023-02-12T02:50:57.166Z,651.7
2023-02-12T02:52:40.451Z,649.4
2023-02-12T02:54:24.168Z,647.9
2023-02-12T02:56:07.836Z,645.6
2023-02-12T02:57:51.555Z,644.4
2023-02-12T02:59:35.263Z,646.7
2023-02-12T03:01:18.974Z,646.7
2023-02-12T03:03:02.651Z,648.9
2023-02-12T03:04:46.357Z,650.5
2023-02-12T03:06:30.071Z,650.8
2023-02-12T03:08:13.773Z,649.9
2023-02-12T03:11:41.172Z,645
2023-02-12T03:13:24.875Z,644.5
2023-02-12T03:15:08.586Z,643.8
2023-02-12T03:16:52.297Z,645.1
2023-02-12T03:18:35.999Z,640.8
2023-02-12T03:20:19.683Z,635.7
2023-02-12T03:22:03.398Z,636.9
2023-02-12T03:23:47.109Z,631.5
2023-02-12T03:25:30.797Z,628.8
2023-02-12T03:27:14.516Z,626.8
2023-02-12T03:28:58.211Z,626.9
2023-02-12T03:30:41.910Z,628.7
2023-02-12T03:32:25.601Z,629.2
2023-02-12T03:34:09.311Z,628.6
2023-02-12T03:35:53.018Z,625.9
2023-02-12T03:37:36.723Z,621.9
2023-02-12T03:39:20.879Z,618.4
2023-02-12T03:41:04.103Z,620.6
2023-02-12T03:42:47.869Z,623
2023-02-12T03:44:31.526Z,625
2023-02-12T03:46:15.211Z,623.8
2023-02-12T03:47:58.909Z,622
2023-02-12T03:49:42.616Z,622
2023-02-12T03:51:26.331Z,622.6
2023-02-12T03:53:10.385Z,621.6
2023-02-12T03:54:53.715Z,621.8
2023-02-12T03:56:37.433Z,621.2
2023-02-12T03:58:21.131Z,625.7
2023-02-12T04:00:04.821Z,627.1
2023-02-12T04:01:48.534Z,624.2
2023-02-12T04:03:32.235Z,621
2023-02-12T04:05:15.953Z,618.3
2023-02-12T04:06:59.632Z,615.8
2023-02-12T04:08:43.333Z,614.5
2023-02-12T04:10:27.036Z,614.2
2023-02-12T04:12:10.754Z,614.9
2023-02-12T04:13:54.457Z,614.6
2023-02-12T04:15:38.139Z,614
2023-02-12T04:17:21.850Z,611.6
2023-02-12T04:19:05.549Z,612.4
2023-02-12T04:20:49.259Z,609.8
2023-02-12T04:22:32.956Z,607.7
2023-02-12T04:24:16.652Z,606.8
2023-02-12T04:26:00.353Z,606.5
2023-02-12T04:27:44.589Z,604.8
2023-02-12T04:29:27.766Z,603.9
2023-02-12T04:31:11.459Z,605.7
2023-02-12T04:32:55.163Z,604.3
2023-02-12T04:34:38.887Z,602.7
2023-02-12T04:36:22.567Z,604
2023-02-12T04:38:06.273Z,606.2
2023-02-12T04:39:49.964Z,604.1
2023-02-12T04:41:33.675Z,601.7
2023-02-12T04:43:17.359Z,602
2023-02-12T04:45:01.065Z,604
2023-02-12T04:46:44.768Z,603.9
2023-02-12T04:48:28.486Z,605.4
2023-02-12T04:50:12.178Z,601.6
2023-02-12T04:51:55.882Z,599.7
2023-02-12T04:53:39.587Z,600.7
2023-02-12T04:55:23.280Z,598.1
2023-02-12T04:57:06.988Z,596.2
2023-02-12T04:58:51.157Z,593.5
2023-02-12T05:00:34.404Z,592.5
2023-02-12T05:02:18.100Z,591.3
2023-02-12T05:04:01.814Z,593.4
2023-02-12T05:05:45.517Z,593.5
2023-02-12T05:07:29.493Z,591.8
2023-02-12T05:09:12.923Z,590.3
2023-02-12T05:10:56.611Z,588.7
2023-02-12T05:12:40.303Z,588.1
2023-02-12T05:14:24.020Z,586.8
2023-02-12T05:16:07.697Z,587.1
2023-02-12T05:17:51.422Z,585.5
2023-02-12T05:19:35.109Z,585.9
2023-02-12T05:21:18.825Z,582.8
2023-02-12T05:23:02.509Z,580.7
2023-02-12T05:24:46.219Z,578.1
2023-02-12T05:26:29.931Z,576
2023-02-12T05:28:13.617Z,576.2
2023-02-12T05:29:57.327Z,576.2
2023-02-12T05:31:41.012Z,573.7
2023-02-12T05:33:24.725Z,571.7
2023-02-12T05:35:08.422Z,570.3
2023-02-12T05:36:52.133Z,571
2023-02-12T05:38:35.844Z,570.5
2023-02-12T05:40:19.528Z,570.7
2023-02-12T05:42:03.241Z,571.4
2023-02-12T05:43:46.945Z,571.3
2023-02-12T05:45:30.643Z,571.9
2023-02-12T05:47:14.344Z,571.9
2023-02-12T05:48:58.043Z,571.5
2023-02-12T05:50:41.753Z,568.7
2023-02-12T05:52:25.448Z,565.9
2023-02-12T05:54:09.149Z,568.9
2023-02-12T05:55:52.841Z,571.9
2023-02-12T05:57:36.537Z,569.7
2023-02-12T05:59:20.239Z,568.5
2023-02-12T06:01:03.959Z,567.7
2023-02-12T06:02:47.658Z,567.4
2023-02-12T06:04:31.345Z,564.6
2023-02-12T06:06:15.119Z,564.1
2023-02-12T06:07:58.762Z,563.5
2023-02-12T06:09:42.563Z,565.1
2023-02-12T06:11:26.273Z,563.8
2023-02-12T06:13:09.868Z,562.5
2023-02-12T06:14:53.585Z,560.7
2023-02-12T06:16:37.272Z,561.5
2023-02-12T06:18:20.976Z,561.5
2023-02-12T06:20:04.670Z,563.6
2023-02-12T06:21:48.380Z,562.5
2023-02-12T06:23:32.080Z,564.5
2023-02-12T06:25:15.793Z,567.1
2023-02-12T06:28:43.184Z,569.8
2023-02-12T06:30:26.896Z,567.1
2023-02-12T06:32:10.602Z,566.6
2023-02-12T06:33:54.294Z,568.1
2023-02-12T06:35:37.980Z,566.2
2023-02-12T06:37:21.698Z,565.8
2023-02-12T06:39:05.406Z,566.8
2023-02-12T06:40:49.094Z,565.7
2023-02-12T06:42:32.790Z,564.6
2023-02-12T06:44:16.505Z,562.6
2023-02-12T06:46:00.209Z,560.6
2023-02-12T06:47:43.904Z,560
2023-02-12T06:49:27.600Z,559.1
2023-02-12T06:51:11.333Z,559.4
2023-02-12T06:52:55.023Z,561.3
2023-02-12T06:54:38.726Z,559.2
2023-02-12T06:56:22.424Z,556
2023-02-12T06:58:06.129Z,555.4
2023-02-12T06:59:49.838Z,557.1
2023-02-12T07:01:34.000Z,559.4
2023-02-12T07:03:17.259Z,558.3
2023-02-12T07:05:00.956Z,559.1
2023-02-12T07:06:44.653Z,560.8
2023-02-12T07:08:28.344Z,561.7
2023-02-12T07:10:12.053Z,560.8
2023-02-12T07:11:55.764Z,562.2
2023-02-12T07:13:39.447Z,560.5
2023-02-12T07:15:23.152Z,561.3
2023-02-12T07:17:06.848Z,561
2023-02-12T07:18:50.572Z,562.4
2023-02-12T07:20:34.251Z,563
2023-02-12T07:22:17.945Z,563.2
2023-02-12T07:24:01.732Z,564.4
2023-02-12T07:25:45.349Z,563.3
2023-02-12T07:27:29.067Z,559.1
2023-02-12T07:29:12.760Z,559.1
2023-02-12T07:30:56.478Z,560.1
2023-02-12T07:32:40.169Z,558.1
2023-02-12T07:34:23.890Z,555.2
2023-02-12T07:36:07.575Z,555.3
2023-02-12T07:37:51.339Z,553.8
2023-02-12T07:39:34.978Z,550.9
2023-02-12T07:41:18.722Z,552.9
2023-02-12T07:43:02.429Z,552.5
2023-02-12T07:44:46.079Z,550.4
2023-02-12T07:46:29.813Z,548.6
2023-02-12T07:48:13.496Z,553.6
2023-02-12T07:49:57.185Z,554.8
2023-02-12T07:51:40.894Z,560.1
2023-02-12T07:55:08.350Z,587
2023-02-12T07:56:52.094Z,589.4
2023-02-12T07:58:35.709Z,586.6
2023-02-12T08:00:19.456Z,582.1
2023-02-12T08:02:03.368Z,579.3
2023-02-12T08:03:46.867Z,577.5
2023-02-12T08:05:30.512Z,581.7
2023-02-12T08:07:14.203Z,581.9
2023-02-12T08:08:57.915Z,580.4
2023-02-12T08:10:41.612Z,578.4
2023-02-12T08:12:25.300Z,574.5
2023-02-12T08:14:09.076Z,572.6
2023-02-12T08:15:52.713Z,572.5
2023-02-12T08:17:36.430Z,573.8
2023-02-12T08:19:20.124Z,572.8
2023-02-12T08:21:03.825Z,571.5
2023-02-12T08:22:47.529Z,574.7
2023-02-12T08:24:31.321Z,574.6
2023-02-12T08:26:14.952Z,572.1
2023-02-12T08:27:58.734Z,571.2
2023-02-12T08:29:42.400Z,569.8
2023-02-12T08:31:26.027Z,575.8
2023-02-12T08:33:09.843Z,585.9
2023-02-12T08:34:53.426Z,586.9
2023-02-12T08:36:37.132Z,586.9
2023-02-12T08:38:20.841Z,585.7
2023-02-12T08:40:04.552Z,584.5
2023-02-12T08:41:48.241Z,582.2
2023-02-12T08:43:32.010Z,580.8
2023-02-12T08:45:15.699Z,580.5
2023-02-12T08:46:59.379Z,578.1
2023-02-12T08:48:43.171Z,579.3
2023-02-12T08:50:26.745Z,579.6
2023-02-12T08:52:10.560Z,582
2023-02-12T08:53:54.161Z,586.2
2023-02-12T08:55:37.856Z,589.4
2023-02-12T08:57:21.583Z,590.6
2023-02-12T08:59:05.267Z,589.6
2023-02-12T09:00:48.958Z,592.5
2023-02-12T09:02:32.677Z,594.4
2023-02-12T09:04:16.356Z,593
2023-02-12T09:06:00.073Z,594.3
2023-02-12T09:07:43.776Z,593.8
2023-02-12T09:09:27.479Z,593.7
2023-02-12T09:11:11.141Z,596.4
2023-02-12T09:12:54.861Z,595.2
2023-02-12T09:14:38.574Z,592.1
2023-02-12T09:16:22.272Z,590.3
2023-02-12T09:18:05.970Z,590.4
2023-02-12T09:19:49.744Z,592.1
2023-02-12T09:21:33.486Z,589.7
2023-02-12T09:23:17.051Z,588
2023-02-12T09:25:00.767Z,589.3
2023-02-12T09:26:44.520Z,587.4
2023-02-12T09:28:28.167Z,587
2023-02-12T09:30:11.888Z,585.4
2023-02-12T09:31:55.598Z,582.7
2023-02-12T09:33:39.288Z,581
2023-02-12T09:35:22.991Z,582.5
2023-02-12T09:37:06.685Z,581.4
2023-02-12T09:38:50.398Z,581.7
2023-02-12T09:40:34.074Z,579.5
2023-02-12T09:42:17.795Z,580.7
2023-02-12T09:44:01.491Z,579.9
2023-02-12T09:45:45.253Z,580.7
2023-02-12T09:47:28.873Z,583.9
2023-02-12T09:49:12.636Z,581.6
2023-02-12T09:50:56.379Z,580.3
2023-02-12T09:52:40.007Z,579.2
2023-02-12T09:54:23.703Z,579.2
2023-02-12T09:56:07.406Z,582.5
2023-02-12T09:57:51.111Z,583
2023-02-12T09:59:34.811Z,585.8
2023-02-12T10:01:18.517Z,588
2023-02-12T10:03:02.243Z,585.8
2023-02-12T10:04:45.919Z,585
2023-02-12T10:06:29.670Z,583.8
2023-02-12T10:08:13.418Z,584
2023-02-12T10:09:57.023Z,584.8
2023-02-12T10:11:40.733Z,586.8
2023-02-12T10:13:24.438Z,585
2023-02-12T10:15:08.128Z,582.9
2023-02-12T10:16:51.853Z,580.7
2023-02-12T10:18:35.521Z,580.2
2023-02-12T10:20:19.308Z,577.8
2023-02-12T10:22:03.173Z,578.4
2023-02-12T10:23:46.700Z,579
2023-02-12T10:25:30.338Z,577.8
2023-02-12T10:27:14.225Z,574.5
2023-02-12T10:28:57.909Z,573.9
2023-02-12T10:30:41.610Z,573.5
2023-02-12T10:32:25.159Z,573.6
2023-02-12T10:34:09.037Z,573.3
2023-02-12T10:35:52.613Z,572.3
2023-02-12T10:37:36.393Z,571.1
2023-02-12T10:39:20.049Z,573.8
2023-02-12T10:41:03.638Z,574.5
2023-02-12T10:42:47.506Z,582.5
2023-02-12T10:44:31.266Z,589.7
2023-02-12T10:46:14.847Z,600.9
2023-02-12T10:47:58.468Z,609
2023-02-12T10:49:42.278Z,611.4
2023-02-12T10:51:25.883Z,612.4
2023-02-12T10:53:09.637Z,614.1
2023-02-12T10:54:53.445Z,617
2023-02-12T10:56:37.144Z,620.3
2023-02-12T10:58:20.809Z,623.5
2023-02-12T11:00:04.419Z,626.6
2023-02-12T11:01:48.209Z,629
2023-02-12T11:03:31.927Z,631.2
2023-02-12T11:05:15.744Z,633
2023-02-12T11:06:59.428Z,632.3
2023-02-12T11:08:43.004Z,631.4
2023-02-12T11:10:26.622Z,633.2
2023-02-12T11:12:10.475Z,634.8
2023-02-12T11:13:54.061Z,634.1
2023-02-12T11:15:37.691Z,630.7
2023-02-12T11:17:21.384Z,627.8
2023-02-12T11:19:05.104Z,629.5
2023-02-12T11:20:48.926Z,627.3
2023-02-12T11:22:32.658Z,628.2
2023-02-12T11:24:16.316Z,629
2023-02-12T11:26:00.042Z,626.9
2023-02-12T11:27:43.696Z,626.2
2023-02-12T11:29:27.299Z,624
2023-02-12T11:31:11.148Z,624.7
2023-02-12T11:32:54.892Z,626.6
2023-02-12T11:34:38.585Z,632.7
2023-02-12T11:36:22.335Z,638.6
2023-02-12T11:38:05.950Z,657.3
2023-02-12T11:39:49.561Z,678.5
2023-02-12T11:41:33.230Z,705.2
2023-02-12T11:43:16.993Z,762.5
2023-02-12T11:45:00.769Z,784.2
2023-02-12T11:46:44.515Z,793.5
2023-02-12T11:48:28.157Z,793.4
2023-02-12T11:51:55.535Z,799.9
2023-02-12T11:53:39.143Z,807.7
2023-02-12T11:55:22.858Z,821.1
2023-02-12T11:57:06.549Z,827.5
2023-02-12T11:58:50.312Z,834.7
2023-02-12T12:00:33.957Z,844.6
2023-02-12T12:02:17.700Z,857.5
2023-02-12T12:04:01.385Z,867.7
2023-02-12T12:05:45.099Z,870.3
2023-02-12T12:07:28.792Z,871.8
2023-02-12T12:09:12.531Z,869.7
2023-02-12T12:10:56.294Z,875.6
2023-02-12T12:12:39.881Z,881.4
2023-02-12T12:14:23.578Z,881.6
2023-02-12T12:16:07.290Z,878.7
2023-02-12T12:17:50.978Z,864.9
2023-02-12T12:19:34.677Z,857.3
2023-02-12T12:21:18.384Z,850.7
2023-02-12T12:23:02.134Z,845.4
2023-02-12T12:24:45.794Z,846
2023-02-12T12:26:29.540Z,844.3
2023-02-12T12:28:13.196Z,844.5
2023-02-12T12:29:56.995Z,847.2
2023-02-12T12:31:40.641Z,852.8
2023-02-12T12:33:24.357Z,857.2
2023-02-12T12:35:08.170Z,862.7
2023-02-12T12:36:51.739Z,868.2
2023-02-12T12:38:35.595Z,870.6
2023-02-12T12:40:19.137Z,872.3
2023-02-12T12:42:02.872Z,876.2
2023-02-12T12:43:46.739Z,877.6
2023-02-12T12:45:30.291Z,879.2
2023-02-12T12:47:13.990Z,886.5
2023-02-12T12:48:57.671Z,893.4
2023-02-12T12:50:41.326Z,897.2
2023-02-12T12:52:25.143Z,903.2
2023-02-12T12:54:08.894Z,906.8
2023-02-12T12:55:52.529Z,910.4
2023-02-12T12:57:36.261Z,917.1
2023-02-12T12:59:20.043Z,923.1
2023-02-12T13:01:03.629Z,925.5
2023-02-12T13:02:47.312Z,927.9
2023-02-12T13:04:31.054Z,928.8
2023-02-12T13:06:14.794Z,929.1
2023-02-12T13:07:58.539Z,930.4
2023-02-12T13:09:42.049Z,932.6
2023-02-12T13:11:25.740Z,933.5
2023-02-12T13:13:09.442Z,934.1
2023-02-12T13:14:53.162Z,937.2
2023-02-12T13:16:37.186Z,937.8
2023-02-12T13:18:20.585Z,934.3
2023-02-12T13:20:04.267Z,931.4
2023-02-12T13:21:47.973Z,928.2
2023-02-12T13:23:31.692Z,922.1
2023-02-12T13:25:15.384Z,916.8
2023-02-12T13:26:59.100Z,910.2
2023-02-12T13:28:42.787Z,903.5
2023-02-12T13:30:26.628Z,900
2023-02-12T13:32:10.259Z,897.7
2023-02-12T13:33:53.937Z,898.9
2023-02-12T13:35:37.590Z,899.8
2023-02-12T13:37:21.338Z,903.6
2023-02-12T13:39:04.997Z,906.1
2023-02-12T13:40:48.697Z,910.9
2023-02-12T13:42:32.444Z,921.1
2023-02-12T13:44:16.104Z,928.1
2023-02-12T13:45:59.821Z,936.2
2023-02-12T13:47:43.516Z,943.6
2023-02-12T13:49:27.204Z,947
2023-02-12T13:51:11.104Z,950.4
2023-02-12T13:52:54.743Z,951.2
2023-02-12T13:54:38.383Z,948.3
2023-02-12T13:56:22.027Z,946.7
2023-02-12T13:58:05.854Z,944.5
2023-02-12T13:59:49.442Z,941.9
2023-02-12T14:01:33.185Z,939.3
2023-02-12T14:03:16.893Z,935
2023-02-12T14:05:00.541Z,932
2023-02-12T14:06:44.248Z,927.9
2023-02-12T14:08:27.953Z,919.3
2023-02-12T14:10:11.719Z,915.8
2023-02-12T14:11:55.469Z,918.4
2023-02-12T14:13:39.080Z,919.3
2023-02-12T14:15:22.831Z,925.6
2023-02-12T14:17:06.442Z,928.6
2023-02-12T14:18:50.342Z,928.1
2023-02-12T14:20:34.080Z,924
2023-02-12T14:22:17.710Z,925.4
2023-02-12T14:24:01.102Z,926.7
2023-02-12T14:25:44.814Z,925.6
2023-02-12T14:27:28.497Z,924.8
2023-02-12T14:29:12.057Z,923.8
2023-02-12T14:30:55.750Z,922.4
2023-02-12T14:32:39.460Z,919.3
2023-02-12T14:34:23.160Z,917.9
2023-02-12T14:36:06.865Z,919.7
2023-02-12T14:37:50.574Z,917.7
2023-02-12T14:39:34.274Z,914.5
2023-02-12T14:41:17.983Z,913.7
2023-02-12T14:43:01.677Z,913.8
2023-02-12T14:44:45.389Z,918.1
2023-02-12T14:46:29.123Z,921.9
2023-02-12T14:48:12.777Z,921.9
2023-02-12T14:51:40.179Z,918.8
2023-02-12T14:53:23.884Z,916.5
2023-02-12T14:55:07.631Z,919.1
2023-02-12T14:56:51.328Z,920.9
2023-02-12T14:58:35.038Z,923
2023-02-12T15:00:18.681Z,925.1
2023-02-12T15:02:02.413Z,926.3
2023-02-12T15:03:46.103Z,927.7
2023-02-12T15:05:29.799Z,931.4
2023-02-12T15:07:13.504Z,934.3
2023-02-12T15:08:57.211Z,936.6
2023-02-12T15:10:40.911Z,939.8
2023-02-12T15:12:24.607Z,954.8
2023-02-12T15:14:08.429Z,957.6
2023-02-12T15:15:52.025Z,978.6
2023-02-12T15:17:35.703Z,998.9
2023-02-12T15:19:19.468Z,1004.4
2023-02-12T15:21:03.145Z,1006.5
2023-02-12T15:22:46.811Z,1001.3
2023-02-12T15:24:30.724Z,998.5
2023-02-12T15:26:14.409Z,994.7
2023-02-12T15:27:57.939Z,1002.6
2023-02-12T15:29:41.613Z,1013.2
2023-02-12T15:31:25.360Z,1034.6
2023-02-12T15:33:09.204Z,1048.9
2023-02-12T15:34:52.827Z,1060.8
2023-02-12T15:36:36.464Z,1076.2
2023-02-12T15:38:20.175Z,1086
2023-02-12T15:40:03.910Z,1092.7
2023-02-12T15:41:47.539Z,1099.7
2023-02-12T15:43:31.264Z,1104.1
2023-02-12T15:45:15.061Z,1098.7
2023-02-12T15:46:58.676Z,1087.4
2023-02-12T15:48:42.378Z,1071.3
2023-02-12T15:50:26.155Z,1062.6
2023-02-12T15:52:09.761Z,1060.6
2023-02-12T15:53:53.442Z,1063.4
2023-02-12T15:55:37.151Z,1058.3
2023-02-12T15:57:20.845Z,1059.4
2023-02-12T15:59:04.542Z,1062
2023-02-12T16:00:48.253Z,1064.4
2023-02-12T16:02:31.963Z,1066.8
2023-02-12T16:04:15.656Z,1072
2023-02-12T16:05:59.343Z,1079.3
2023-02-12T16:07:43.050Z,1088.1
2023-02-12T16:09:26.753Z,1126.3
2023-02-12T16:11:10.517Z,1129.6
2023-02-12T16:12:54.186Z,1131
2023-02-12T16:14:37.870Z,1143.1
2023-02-12T16:16:21.605Z,1149
2023-02-12T16:18:05.262Z,1154.9
2023-02-12T16:19:48.967Z,1162.3
2023-02-12T16:21:32.673Z,1162.9
2023-02-12T16:23:16.420Z,1161.4
2023-02-12T16:25:00.083Z,1175.9
2023-02-12T16:26:43.827Z,1191.9
2023-02-12T16:28:27.582Z,1186.6
2023-02-12T16:30:11.181Z,1174.8
2023-02-12T16:31:54.969Z,1176.8
2023-02-12T16:33:53.873Z,1201.5
2023-02-12T16:35:22.293Z,1210.4
2023-02-12T16:37:06.141Z,1200.8
2023-02-12T16:38:49.872Z,1187.1
2023-02-12T16:40:33.509Z,1172.8
2023-02-12T16:42:17.200Z,1164.2
2023-02-12T16:44:00.930Z,1160.5
2023-02-12T16:45:44.489Z,1155.4
2023-02-12T16:47:28.366Z,1155.7
2023-02-12T16:49:12.018Z,1146.1
2023-02-12T16:50:55.700Z,1133.7
2023-02-12T16:52:39.818Z,1123.9
2023-02-12T16:54:23.257Z,1117.9
2023-02-12T16:56:06.788Z,1117.3
2023-02-12T16:57:50.569Z,1111.3
2023-02-12T16:59:34.282Z,1105.1
2023-02-12T17:01:17.806Z,1097.9
2023-02-12T17:03:01.521Z,1095.1
2023-02-12T17:04:45.323Z,1091
2023-02-12T17:06:28.981Z,1092.8
2023-02-12T17:08:12.739Z,1095.1
2023-02-12T17:09:56.332Z,1097.4
2023-02-12T17:11:40.016Z,1100.5
2023-02-12T17:13:23.731Z,1101.5
2023-02-12T17:15:07.433Z,1098
2023-02-12T17:16:51.125Z,1091.5
2023-02-12T17:18:34.844Z,1108.2
2023-02-12T17:20:18.531Z,1128.2
2023-02-12T17:22:02.229Z,1132.6
2023-02-12T17:23:45.957Z,1139.8
2023-02-12T17:25:29.667Z,1136.9
2023-02-12T17:27:13.353Z,1139
2023-02-12T17:28:57.087Z,1141.6
2023-02-12T17:30:40.758Z,1141
2023-02-12T17:32:24.452Z,1141.1
2023-02-12T17:34:08.147Z,1137.9
2023-02-12T17:35:51.864Z,1136.3
2023-02-12T17:37:35.537Z,1136.3
2023-02-12T17:39:19.251Z,1137.1
2023-02-12T17:41:02.995Z,1132.6
2023-02-12T17:42:46.702Z,1135
2023-02-12T17:44:30.365Z,1137.3
2023-02-12T17:46:14.069Z,1139.7
2023-02-12T17:47:57.779Z,1150.7
2023-02-12T17:49:41.585Z,1160.4
2023-02-12T17:51:25.158Z,1158.8
2023-02-12T17:53:08.924Z,1157.2
2023-02-12T17:54:52.604Z,1157.6
2023-02-12T17:56:36.309Z,1157.9
2023-02-12T17:58:19.992Z,1163.2
2023-02-12T18:00:03.700Z,1163.6
2023-02-12T18:01:47.377Z,1164
2023-02-12T18:03:31.165Z,1162.1
2023-02-12T18:05:14.896Z,1163.7
2023-02-12T18:06:58.660Z,1162
2023-02-12T18:08:42.322Z,1160.2
2023-02-12T18:10:25.919Z,1155.7
2023-02-12T18:12:09.703Z,1151
2023-02-12T18:13:53.435Z,1145.5
2023-02-12T18:15:37.018Z,1145.8
2023-02-12T18:17:20.783Z,1146.2
2023-02-12T18:19:04.463Z,1149.3
2023-02-12T18:20:48.260Z,1149.7
2023-02-12T18:22:31.881Z,1154.4
2023-02-12T18:24:15.588Z,1149.8
2023-02-12T18:25:59.371Z,1139.5
2023-02-12T18:27:42.902Z,1128.1
2023-02-12T18:29:26.652Z,1121.6
2023-02-12T18:31:10.351Z,1116.9
2023-02-12T18:32:54.012Z,1107.1
2023-02-12T18:34:37.723Z,1101
2023-02-12T18:36:21.407Z,1101.2
2023-02-12T18:38:05.155Z,1099.1
2023-02-12T18:39:48.838Z,1095.2
2023-02-12T18:41:32.524Z,1090
2023-02-12T18:43:16.225Z,1086.8
2023-02-12T18:44:59.963Z,1083.2
2023-02-12T18:46:43.656Z,1079.3
2023-02-12T18:48:27.340Z,1078.7
2023-02-12T18:50:11.039Z,1080.7
2023-02-12T18:51:54.736Z,1084.7
2023-02-12T18:53:38.440Z,1085.6
2023-02-12T18:55:22.140Z,1088.4
2023-02-12T18:57:05.856Z,1090.4
2023-02-12T18:58:49.568Z,1092.4
2023-02-12T19:00:33.237Z,1092.1
2023-02-12T19:02:16.943Z,1093.4
2023-02-12T19:04:00.629Z,1093.5
2023-02-12T19:05:44.342Z,1093.6
2023-02-12T19:07:28.151Z,1093.1
2023-02-12T19:09:11.743Z,1091.8
2023-02-12T19:10:55.457Z,1089.3
2023-02-12T19:12:39.273Z,1087.9
2023-02-12T19:14:22.968Z,1090.9
2023-02-12T19:16:06.582Z,1091.2
2023-02-12T19:17:50.347Z,1090.9
2023-02-12T19:19:34.023Z,1086
2023-02-12T19:21:17.795Z,1079
2023-02-12T19:23:01.360Z,1075.5
2023-02-12T19:24:45.199Z,1069.1
2023-02-12T19:26:28.790Z,1063.6
2023-02-12T19:28:12.529Z,1060.6
2023-02-12T19:29:56.172Z,1055.7
2023-02-12T19:31:39.912Z,1050.6
2023-02-12T19:33:23.879Z,1044.7
2023-02-12T19:35:07.380Z,1038.6
2023-02-12T19:36:51.030Z,1039.7
2023-02-12T19:38:34.756Z,1037.6
2023-02-12T19:40:18.383Z,1031.9
2023-02-12T19:42:02.156Z,1032
2023-02-12T19:43:45.979Z,1031.3
2023-02-12T19:45:29.599Z,1032.7
2023-02-12T19:47:13.183Z,1035.9
2023-02-12T19:48:56.900Z,1038.6
2023-02-12T19:50:40.606Z,1039
2023-02-12T19:52:24.306Z,1038
2023-02-12T19:54:07.990Z,1039.6
2023-02-12T19:55:51.686Z,1047.5
2023-02-12T19:57:35.404Z,1046.1
2023-02-12T19:59:19.098Z,1049.1
2023-02-12T20:01:02.791Z,1052.3
2023-02-12T20:02:46.516Z,1051.2
2023-02-12T20:04:30.238Z,1050.8
2023-02-12T20:06:13.926Z,1054.7
2023-02-12T20:07:57.598Z,1055.4
2023-02-12T20:09:41.315Z,1057
2023-02-12T20:11:25.019Z,1057.8
2023-02-12T20:13:08.760Z,1058.5
2023-02-12T20:14:52.416Z,1060.4
2023-02-12T20:16:36.130Z,1057.1
2023-02-12T20:18:19.826Z,1057
2023-02-12T20:20:03.534Z,1057.8
2023-02-12T20:21:47.251Z,1061.8
2023-02-12T20:23:30.924Z,1064.2
2023-02-12T20:25:14.633Z,1063.2
2023-02-12T20:26:58.340Z,1064.1
2023-02-12T20:28:42.044Z,1060.8
2023-02-12T20:30:25.727Z,1059.9
2023-02-12T20:32:09.423Z,1057.3
2023-02-12T20:33:53.167Z,1054.7
2023-02-12T20:35:36.864Z,1049.1
2023-02-12T20:37:20.544Z,1046.1
2023-02-12T20:39:04.278Z,1045.6
2023-02-12T20:40:47.943Z,1046.4
2023-02-12T20:42:31.662Z,1041.2
2023-02-12T20:44:15.359Z,1039.5
2023-02-12T20:45:59.037Z,1035.8
2023-02-12T20:47:42.756Z,1037.2
2023-02-12T20:49:26.492Z,1038.1
2023-02-12T20:51:10.167Z,1040.6
2023-02-12T20:52:53.861Z,1041.9
2023-02-12T20:54:37.554Z,1044
2023-02-12T20:56:21.423Z,1041
2023-02-12T20:58:05.084Z,1040.1
2023-02-12T20:59:48.772Z,1041.6
2023-02-12T21:01:32.412Z,1039.9
2023-02-12T21:03:16.139Z,1041.7
2023-02-12T21:05:08.846Z,1042.4
2023-02-12T21:06:43.469Z,1042.9
2023-02-12T21:08:27.403Z,1041.4
2023-02-12T21:10:11.012Z,1045.6
2023-02-12T21:11:54.723Z,1041.6
2023-02-12T21:13:38.405Z,1039.2
2023-02-12T21:15:21.974Z,1044.1
2023-02-12T21:17:05.675Z,1044.6
2023-02-12T21:18:49.531Z,1042.9
2023-02-12T21:20:33.282Z,1039.1
2023-02-12T21:22:16.937Z,1038.5
2023-02-12T21:24:00.722Z,1033.5
2023-02-12T21:25:44.307Z,1032.3
2023-02-12T21:27:28.018Z,1034.9
2023-02-12T21:29:11.787Z,1034.5
2023-02-12T21:30:55.528Z,1033.7
2023-02-12T21:32:39.119Z,1035.1
2023-02-12T21:34:22.864Z,1035.4
2023-02-12T21:36:06.393Z,1037.9
2023-02-12T21:37:50.144Z,1039
2023-02-12T21:39:33.964Z,1038.8
2023-02-12T21:41:17.637Z,1034.6
2023-02-12T21:43:01.443Z,1031.8
2023-02-12T21:44:45.052Z,1028.7
2023-02-12T21:46:28.788Z,1029.7
2023-02-12T21:48:12.524Z,1031.4
2023-02-12T21:49:56.225Z,1031.8
2023-02-12T21:51:39.912Z,1030.6
2023-02-12T21:53:23.575Z,1030.5
2023-02-12T21:55:07.277Z,1031.5
2023-02-12T21:56:51.008Z,1033.5
2023-02-12T21:58:34.692Z,1033.1
2023-02-12T22:00:18.371Z,1032.6
2023-02-12T22:02:02.007Z,1029.4
2023-02-12T22:03:45.692Z,1031
2023-02-12T22:05:29.366Z,1039.3
2023-02-12T22:07:13.009Z,1033.2
2023-02-12T22:08:56.872Z,1025.6
2023-02-12T22:10:40.565Z,1012
2023-02-12T22:12:24.109Z,1006.7
2023-02-12T22:14:07.973Z,1003.5
2023-02-12T22:15:51.741Z,998.1
2023-02-12T22:17:35.348Z,993.7
2023-02-12T22:19:19.126Z,991.7
2023-02-12T22:21:02.628Z,991.9